createdAt,value
2022-09-02T00:00:43.961Z,18.05
2022-09-02T00:03:12.477Z,17.96
2022-09-02T00:05:41.851Z,17.93
2022-09-02T00:08:11.511Z,17.89
2022-09-02T00:10:41.990Z,17.89
2022-09-02T00:13:14.807Z,17.87
2022-09-02T00:15:43.902Z,17.92
2022-09-02T00:18:15.470Z,17.88
2022-09-02T00:20:48.382Z,17.79
2022-09-02T00:23:17.794Z,17.79
2022-09-02T00:25:47.114Z,17.68
2022-09-02T00:28:17.948Z,17.61
2022-09-02T00:30:49.265Z,17.55
2022-09-02T00:33:18.280Z,17.52
2022-09-02T00:35:46.593Z,17.40
2022-09-02T00:38:14.957Z,17.32
2022-09-02T00:40:48.963Z,17.19
2022-09-02T00:43:27.218Z,17.14
2022-09-02T00:45:55.903Z,17.01
2022-09-02T00:48:24.310Z,16.91
2022-09-02T00:50:52.916Z,16.77
2022-09-02T00:53:21.468Z,16.66
2022-09-02T00:55:52.306Z,16.60
2022-09-02T00:58:24.948Z,16.48
2022-09-02T01:01:00.427Z,16.34
2022-09-02T01:03:31.971Z,16.22
2022-09-02T01:06:02.142Z,16.19
2022-09-02T01:08:34.546Z,16.14
2022-09-02T01:11:06.321Z,16.12
2022-09-02T01:13:40.331Z,16.00
2022-09-02T01:16:16.674Z,15.99
2022-09-02T01:18:50.201Z,15.88
2022-09-02T01:21:19.101Z,15.86
2022-09-02T01:23:50.200Z,15.96
2022-09-02T01:26:19.919Z,16.12
2022-09-02T01:28:48.383Z,16.27
2022-09-02T01:31:16.980Z,16.36
2022-09-02T01:33:45.490Z,16.42
2022-09-02T01:36:13.828Z,16.49
2022-09-02T01:38:42.226Z,16.50
2022-09-02T01:41:11.991Z,16.55
2022-09-02T01:43:40.475Z,16.57
2022-09-02T01:46:09.575Z,16.55
2022-09-02T01:48:38.050Z,16.52
2022-09-02T01:51:06.393Z,16.49
2022-09-02T01:53:35.327Z,16.50
2022-09-02T01:56:04.236Z,16.49
2022-09-02T01:58:36.568Z,16.49
2022-09-02T02:01:05.269Z,16.45
2022-09-02T02:03:34.005Z,16.46
2022-09-02T02:06:03.296Z,16.46
2022-09-02T02:08:31.930Z,16.41
2022-09-02T02:11:04.212Z,16.42
2022-09-02T02:13:33.100Z,16.37
2022-09-02T02:16:02.961Z,16.33
2022-09-02T02:18:33.773Z,16.28
2022-09-02T02:21:02.132Z,16.28
2022-09-02T02:23:30.557Z,16.22
2022-09-02T02:25:58.842Z,16.17
2022-09-02T02:28:27.531Z,16.16
2022-09-02T02:30:56.021Z,16.13
2022-09-02T02:33:26.156Z,16.12
2022-09-02T02:36:04.563Z,16.12
2022-09-02T02:38:33.898Z,16.10
2022-09-02T02:41:05.815Z,16.14
2022-09-02T02:43:34.699Z,16.17
2022-09-02T02:46:03.046Z,16.17
2022-09-02T02:48:33.865Z,16.12
2022-09-02T02:51:02.550Z,16.07
2022-09-02T02:53:31.700Z,16.00
2022-09-02T02:56:00.449Z,15.96
2022-09-02T02:58:29.397Z,16.00
2022-09-02T03:00:58.191Z,16.02
2022-09-02T03:03:26.767Z,16.05
2022-09-02T03:05:58.879Z,16.06
2022-09-02T03:08:29.466Z,16.01
2022-09-02T03:10:58.635Z,15.99
2022-09-02T03:13:32.023Z,16.02
2022-09-02T03:16:02.848Z,16.04
2022-09-02T03:18:31.294Z,16.00
2022-09-02T03:21:02.200Z,15.97
2022-09-02T03:23:30.863Z,16.07
2022-09-02T03:26:00.809Z,16.10
2022-09-02T03:28:34.398Z,16.04
2022-09-02T03:31:04.710Z,16.03
2022-09-02T03:33:33.343Z,16.00
2022-09-02T03:36:03.108Z,15.91
2022-09-02T03:38:32.157Z,15.92
2022-09-02T03:41:00.477Z,15.93
2022-09-02T03:43:29.043Z,15.89
2022-09-02T03:45:59.102Z,15.85
2022-09-02T03:48:29.545Z,15.81
2022-09-02T03:50:58.328Z,15.78
2022-09-02T03:53:28.859Z,15.80
2022-09-02T03:56:00.535Z,15.82
2022-09-02T03:58:30.165Z,15.77
2022-09-02T04:01:00.171Z,15.89
2022-09-02T04:03:28.853Z,15.83
2022-09-02T04:05:57.519Z,15.82
2022-09-02T04:08:30.356Z,15.82
2022-09-02T04:11:06.823Z,15.74
2022-09-02T04:13:35.502Z,15.76
2022-09-02T04:16:10.571Z,15.68
2022-09-02T04:18:39.552Z,15.72
2022-09-02T04:21:08.779Z,15.72
2022-09-02T04:23:40.503Z,15.68
2022-09-02T04:26:11.627Z,15.68
2022-09-02T04:28:40.489Z,15.68
2022-09-02T04:31:10.505Z,15.72
2022-09-02T04:33:40.631Z,15.66
2022-09-02T04:36:15.301Z,15.60
2022-09-02T04:38:47.828Z,15.59
2022-09-02T04:41:21.139Z,15.61
2022-09-02T04:43:49.544Z,15.56
2022-09-02T04:46:18.271Z,15.58
2022-09-02T04:48:57.954Z,15.56
2022-09-02T04:51:28.200Z,15.57
2022-09-02T04:54:02.247Z,15.60
2022-09-02T04:56:33.278Z,15.62
2022-09-02T04:59:03.726Z,15.59
2022-09-02T05:01:34.701Z,15.58
2022-09-02T05:04:09.758Z,15.63
2022-09-02T05:06:44.562Z,15.62
2022-09-02T05:09:21.062Z,15.59
2022-09-02T05:12:09.025Z,15.57
2022-09-02T05:14:51.660Z,15.65
2022-09-02T05:17:22.029Z,15.68
2022-09-02T05:19:50.737Z,15.71
2022-09-02T05:22:19.797Z,15.67
2022-09-02T05:24:50.028Z,15.69
2022-09-02T05:27:18.580Z,15.71
2022-09-02T05:29:48.591Z,15.65
2022-09-02T05:32:20.402Z,15.76
2022-09-02T05:34:50.877Z,15.76
2022-09-02T05:37:19.646Z,15.80
2022-09-02T05:39:50.478Z,15.83
2022-09-02T05:42:20.733Z,15.84
2022-09-02T05:44:53.106Z,15.89
2022-09-02T05:47:25.565Z,15.95
2022-09-02T05:49:54.878Z,16.02
2022-09-02T05:52:24.949Z,16.01
2022-09-02T05:54:57.053Z,16.03
2022-09-02T05:57:25.802Z,16.07
2022-09-02T06:00:05.637Z,16.15
2022-09-02T06:02:43.411Z,16.25
2022-09-02T06:05:21.558Z,16.36
2022-09-02T06:07:57.362Z,16.42
2022-09-02T06:10:28.102Z,16.45
2022-09-02T06:12:56.732Z,16.46
2022-09-02T06:15:31.367Z,16.52
2022-09-02T06:18:02.454Z,16.49
2022-09-02T06:20:33.171Z,16.58
2022-09-02T06:23:04.172Z,16.74
2022-09-02T06:25:37.740Z,16.90
2022-09-02T06:28:08.021Z,17.01
2022-09-02T06:30:41.513Z,17.13
2022-09-02T06:33:10.501Z,17.22
2022-09-02T06:35:40.924Z,17.29
2022-09-02T06:38:12.497Z,17.46
2022-09-02T06:40:50.161Z,17.44
2022-09-02T06:43:22.661Z,17.68
2022-09-02T06:46:17.932Z,17.94
2022-09-02T06:48:50.098Z,17.96
2022-09-02T06:51:22.367Z,17.97
2022-09-02T06:53:52.270Z,18.02
2022-09-02T06:56:23.992Z,18.05
2022-09-02T06:58:52.765Z,18.18
2022-09-02T07:01:23.753Z,18.34
2022-09-02T07:04:10.437Z,18.41
2022-09-02T07:06:42.702Z,18.43
2022-09-02T07:09:13.625Z,18.48
2022-09-02T07:11:47.935Z,18.63
2022-09-02T07:14:16.781Z,18.74
2022-09-02T07:16:50.809Z,18.84
2022-09-02T07:19:20.883Z,18.98
2022-09-02T07:21:50.618Z,19.03
2022-09-02T07:24:21.447Z,19.13
2022-09-02T07:26:55.486Z,19.14
2022-09-02T07:29:24.716Z,19.28
2022-09-02T07:31:53.251Z,19.42
2022-09-02T07:34:22.776Z,19.46
2022-09-02T07:36:52.642Z,19.54
2022-09-02T07:39:22.937Z,19.66
2022-09-02T07:41:53.830Z,19.77
2022-09-02T07:44:24.192Z,19.91
2022-09-02T07:46:54.912Z,19.98
2022-09-02T07:49:24.702Z,19.94
2022-09-02T07:51:53.927Z,20.14
2022-09-02T07:54:26.978Z,20.30
2022-09-02T07:56:58.106Z,20.41
2022-09-02T07:59:26.898Z,20.62
2022-09-02T08:01:58.094Z,20.74
2022-09-02T08:04:27.469Z,20.75
2022-09-02T08:06:57.219Z,20.81
2022-09-02T08:09:25.488Z,20.91
2022-09-02T08:11:54.487Z,21.09
2022-09-02T08:14:28.798Z,21.14
2022-09-02T08:16:59.103Z,21.27
2022-09-02T08:19:27.544Z,21.46
2022-09-02T08:21:56.680Z,21.57
2022-09-02T08:24:24.940Z,21.77
2022-09-02T08:26:53.281Z,21.97
2022-09-02T08:29:23.577Z,22.11
2022-09-02T08:31:54.046Z,21.95
2022-09-02T08:34:22.886Z,21.76
2022-09-02T08:36:56.697Z,21.88
2022-09-02T08:39:25.968Z,22.11
2022-09-02T08:42:03.955Z,22.25
2022-09-02T08:44:37.615Z,22.26
2022-09-02T08:47:08.904Z,22.47
2022-09-02T08:49:43.620Z,22.51
2022-09-02T08:52:17.843Z,22.53
2022-09-02T08:54:51.905Z,22.78
2022-09-02T08:57:20.441Z,22.81
2022-09-02T08:59:53.075Z,22.82
2022-09-02T09:02:28.529Z,22.99
2022-09-02T09:05:13.784Z,22.68
2022-09-02T09:07:55.314Z,23.09
2022-09-02T09:10:30.879Z,23.13
2022-09-02T09:13:17.940Z,23.13
2022-09-02T09:15:54.014Z,23.12
2022-09-02T09:18:32.657Z,23.28
2022-09-02T09:21:00.926Z,23.43
2022-09-02T09:23:34.161Z,23.52
2022-09-02T09:26:08.562Z,23.51
2022-09-02T09:28:42.456Z,23.86
2022-09-02T09:31:18.260Z,23.96
2022-09-02T09:34:00.282Z,24.18
2022-09-02T09:36:51.332Z,24.30
2022-09-02T09:39:22.046Z,24.24
2022-09-02T09:41:51.662Z,24.38
2022-09-02T09:44:40.915Z,24.57
2022-09-02T09:47:18.066Z,24.44
2022-09-02T09:49:48.434Z,24.53
2022-09-02T09:52:27.513Z,24.45
2022-09-02T09:55:24.313Z,24.93
2022-09-02T09:57:54.918Z,24.95
2022-09-02T10:00:32.050Z,25.23
2022-09-02T10:03:04.440Z,25.23
2022-09-02T10:05:36.463Z,25.14
2022-09-02T10:08:15.002Z,25.25
2022-09-02T10:10:58.008Z,25.08
2022-09-02T10:13:29.992Z,25.02
2022-09-02T10:16:20.376Z,25.24
2022-09-02T10:18:56.394Z,25.60
2022-09-02T10:21:45.249Z,25.78
2022-09-02T10:24:31.322Z,26.11
2022-09-02T10:27:00.836Z,26.15
2022-09-02T10:29:54.041Z,25.39
2022-09-02T10:32:59.910Z,25.48
2022-09-02T10:35:40.133Z,26.01
2022-09-02T10:38:20.936Z,25.42
2022-09-02T10:40:54.027Z,25.74
2022-09-02T10:43:32.743Z,25.42
2022-09-02T10:46:02.241Z,25.65
2022-09-02T10:48:41.191Z,25.71
2022-09-02T10:51:20.498Z,26.25
2022-09-02T10:54:10.914Z,26.45
2022-09-02T10:56:44.929Z,26.52
2022-09-02T10:59:19.557Z,26.71
2022-09-02T11:01:53.852Z,26.48
2022-09-02T11:04:28.008Z,26.57
2022-09-02T11:07:03.066Z,26.79
2022-09-02T11:09:38.097Z,26.73
2022-09-02T11:12:12.265Z,26.76
2022-09-02T11:14:54.298Z,27.37
2022-09-02T11:17:29.358Z,26.69
2022-09-02T11:20:03.046Z,26.92
2022-09-02T11:22:41.659Z,26.87
2022-09-02T11:25:17.272Z,27.02
2022-09-02T11:27:50.159Z,27.15
2022-09-02T11:30:21.441Z,27.26
2022-09-02T11:32:55.535Z,27.61
2022-09-02T11:35:27.447Z,27.46
2022-09-02T11:38:03.470Z,27.47
2022-09-02T11:40:38.941Z,27.36
2022-09-02T11:43:28.799Z,27.50
2022-09-02T11:46:14.726Z,27.70
2022-09-02T11:49:37.388Z,27.81
2022-09-02T11:55:03.226Z,27.88
2022-09-02T11:57:33.973Z,27.90
2022-09-02T12:00:41.240Z,28.19
2022-09-02T12:03:40.854Z,28.02
2022-09-02T12:06:13.822Z,28.00
2022-09-02T12:09:06.794Z,28.16
2022-09-02T12:11:41.791Z,28.24
2022-09-02T12:14:13.681Z,28.19
2022-09-02T12:16:45.641Z,28.43
2022-09-02T12:19:29.183Z,28.58
2022-09-02T12:22:26.484Z,28.44
2022-09-02T12:24:55.734Z,27.99
2022-09-02T12:27:28.626Z,27.65
2022-09-02T12:29:58.908Z,28.11
2022-09-02T12:33:09.782Z,28.64
2022-09-02T12:35:57.607Z,29.06
2022-09-02T12:38:32.274Z,28.71
2022-09-02T12:41:22.950Z,28.63
2022-09-02T12:44:06.311Z,28.65
2022-09-02T12:46:54.506Z,28.58
2022-09-02T12:49:37.415Z,28.68
2022-09-02T12:52:09.819Z,28.89
2022-09-02T12:54:47.785Z,29.08
2022-09-02T12:57:17.670Z,29.12
2022-09-02T12:59:48.668Z,29.61
2022-09-02T13:02:42.442Z,29.07
2022-09-02T13:05:25.284Z,27.87
2022-09-02T13:08:27.039Z,27.86
2022-09-02T13:11:31.876Z,27.75
2022-09-02T13:14:45.225Z,28.53
2022-09-02T13:17:36.497Z,27.98
2022-09-02T13:20:36.415Z,28.97
2022-09-02T13:23:31.197Z,29.70
2022-09-02T13:26:48.424Z,29.82
2022-09-02T13:29:44.118Z,29.73
2022-09-02T13:32:16.827Z,30.05
2022-09-02T13:34:48.621Z,29.68
2022-09-02T13:37:31.451Z,29.77
2022-09-02T13:40:00.847Z,29.63
2022-09-02T13:42:33.004Z,29.60
2022-09-02T13:45:12.759Z,29.91
2022-09-02T13:47:44.218Z,30.00
2022-09-02T13:50:15.923Z,30.25
2022-09-02T13:55:43.685Z,30.05
2022-09-02T13:58:27.056Z,30.39
2022-09-02T14:01:01.721Z,30.62
2022-09-02T14:03:33.122Z,30.28
2022-09-02T14:06:03.766Z,30.00
2022-09-02T14:08:32.705Z,30.15
2022-09-02T14:11:06.828Z,30.10
2022-09-02T14:13:36.838Z,29.91
2022-09-02T14:16:28.361Z,28.58
2022-09-02T14:19:07.093Z,27.95
2022-09-02T14:21:37.870Z,29.04
2022-09-02T14:24:06.714Z,29.70
2022-09-02T14:26:37.768Z,29.95
2022-09-02T14:29:07.968Z,30.52
2022-09-02T14:31:38.010Z,31.34
2022-09-02T14:34:35.984Z,31.31
2022-09-02T14:37:20.157Z,31.31
2022-09-02T14:40:11.733Z,31.31
2022-09-02T14:42:48.723Z,30.85
2022-09-02T14:45:27.228Z,30.23
2022-09-02T14:47:55.895Z,29.24
2022-09-02T14:50:28.702Z,28.76
2022-09-02T14:53:04.785Z,29.31
2022-09-02T14:55:47.441Z,30.96
2022-09-02T14:58:16.667Z,30.54
2022-09-02T15:00:47.635Z,31.24
2022-09-02T15:03:17.366Z,31.76
2022-09-02T15:05:45.968Z,31.30
2022-09-02T15:08:17.149Z,31.56
2022-09-02T15:10:46.583Z,31.42
2022-09-02T15:13:23.165Z,31.06
2022-09-02T15:15:53.043Z,29.80
2022-09-02T15:18:21.499Z,28.53
2022-09-02T15:20:50.061Z,27.84
2022-09-02T15:23:20.064Z,27.60
2022-09-02T15:25:48.738Z,27.27
2022-09-02T15:28:17.044Z,27.04
2022-09-02T15:30:45.448Z,27.08
2022-09-02T15:33:17.380Z,27.13
2022-09-02T15:35:46.877Z,27.11
2022-09-02T15:38:15.218Z,27.27
2022-09-02T15:40:45.274Z,28.00
2022-09-02T15:43:13.768Z,27.85
2022-09-02T15:45:47.188Z,27.54
2022-09-02T15:48:15.935Z,27.58
2022-09-02T15:50:46.419Z,27.54
2022-09-02T15:53:16.174Z,27.55
2022-09-02T15:55:45.894Z,27.26
2022-09-02T15:58:14.407Z,27.14
2022-09-02T16:00:43.906Z,27.09
2022-09-02T16:03:12.453Z,26.94
2022-09-02T16:05:43.193Z,26.95
2022-09-02T16:08:11.579Z,26.83
2022-09-02T16:10:40.431Z,26.85
2022-09-02T16:13:10.065Z,26.80
2022-09-02T16:15:38.353Z,26.77
2022-09-02T16:18:06.764Z,26.76
2022-09-02T16:20:34.991Z,26.71
2022-09-02T16:23:03.557Z,26.73
2022-09-02T16:25:31.873Z,26.67
2022-09-02T16:28:01.562Z,26.47
2022-09-02T16:30:31.651Z,26.46
2022-09-02T16:33:00.039Z,26.43
2022-09-02T16:35:28.264Z,26.42
2022-09-02T16:37:57.782Z,26.45
2022-09-02T16:40:26.067Z,26.41
2022-09-02T16:42:54.314Z,26.34
2022-09-02T16:45:22.576Z,26.15
2022-09-02T16:47:52.211Z,26.11
2022-09-02T16:50:20.479Z,26.04
2022-09-02T16:52:48.680Z,25.84
2022-09-02T16:55:18.888Z,25.79
2022-09-02T16:57:47.164Z,25.77
2022-09-02T17:00:17.154Z,25.71
2022-09-02T17:02:45.568Z,25.74
2022-09-02T17:05:17.572Z,25.66
2022-09-02T17:07:46.808Z,25.63
2022-09-02T17:10:15.372Z,25.59
2022-09-02T17:12:43.627Z,25.50
2022-09-02T17:15:11.925Z,25.48
2022-09-02T17:17:42.321Z,25.39
2022-09-02T17:20:13.166Z,25.42
2022-09-02T17:22:42.997Z,25.48
2022-09-02T17:25:11.924Z,25.46
2022-09-02T17:27:41.116Z,25.30
2022-09-02T17:30:11.419Z,25.29
2022-09-02T17:32:40.305Z,25.16
2022-09-02T17:35:11.136Z,25.10
2022-09-02T17:37:40.621Z,25.05
2022-09-02T17:40:34.105Z,24.98
2022-09-02T17:43:01.408Z,24.92
2022-09-02T17:45:29.738Z,24.85
2022-09-02T17:48:08.832Z,24.75
2022-09-02T17:50:46.389Z,24.72
2022-09-02T17:53:14.681Z,24.66
2022-09-02T17:55:44.464Z,24.60
2022-09-02T17:58:19.281Z,24.53
2022-09-02T18:00:50.397Z,24.46
2022-09-02T18:03:40.974Z,24.34
2022-09-02T18:06:15.556Z,24.27
2022-09-02T18:08:50.240Z,24.25
2022-09-02T18:11:22.498Z,24.23
2022-09-02T18:14:00.597Z,24.09
2022-09-02T18:16:33.482Z,24.05
2022-09-02T18:19:13.726Z,23.91
2022-09-02T18:22:00.720Z,23.76
2022-09-02T18:24:44.505Z,23.60
2022-09-02T18:27:21.271Z,23.49
2022-09-02T18:30:02.776Z,23.39
2022-09-02T18:32:55.273Z,23.32
2022-09-02T18:35:33.233Z,23.28
2022-09-02T18:38:07.949Z,23.27
2022-09-02T18:40:44.132Z,23.13
2022-09-02T18:43:22.120Z,23.00
2022-09-02T18:45:52.660Z,22.93
2022-09-02T18:48:25.518Z,22.84
2022-09-02T18:50:58.108Z,22.60
2022-09-02T18:53:32.485Z,22.47
2022-09-02T18:56:06.277Z,22.36
2022-09-02T18:58:40.742Z,22.16
2022-09-02T19:01:17.799Z,22.03
2022-09-02T19:03:46.257Z,21.85
2022-09-02T19:06:19.400Z,21.76
2022-09-02T19:08:48.369Z,21.64
2022-09-02T19:11:18.040Z,21.58
2022-09-02T19:13:49.979Z,21.38
2022-09-02T19:16:20.280Z,21.27
2022-09-02T19:18:48.625Z,21.20
2022-09-02T19:21:21.052Z,21.11
2022-09-02T19:23:49.993Z,21.06
2022-09-02T19:26:18.858Z,21.01
2022-09-02T19:28:49.490Z,20.89
2022-09-02T19:31:22.887Z,20.83
2022-09-02T19:33:54.223Z,20.79
2022-09-02T19:36:24.400Z,20.70
2022-09-02T19:38:56.744Z,20.68
2022-09-02T19:41:27.666Z,20.59
2022-09-02T19:43:57.427Z,20.49
2022-09-02T19:47:11.793Z,20.39
2022-09-02T19:49:16.690Z,20.32
2022-09-02T19:51:45.890Z,20.27
2022-09-02T19:54:15.940Z,20.18
2022-09-02T19:56:44.219Z,20.15
2022-09-02T19:59:14.180Z,20.13
2022-09-02T20:01:42.449Z,20.07
2022-09-02T20:04:11.683Z,20.09
2022-09-02T20:06:40.683Z,20.10
2022-09-02T20:09:09.082Z,19.99
2022-09-02T20:11:38.636Z,19.98
2022-09-02T20:14:09.443Z,19.85
2022-09-02T20:16:39.177Z,19.95
2022-09-02T20:19:07.672Z,19.82
2022-09-02T20:21:44.629Z,19.75
2022-09-02T20:24:15.803Z,19.68
2022-09-02T20:26:53.394Z,19.71
2022-09-02T20:29:41.412Z,19.61
2022-09-02T20:32:25.070Z,19.41
2022-09-02T20:35:08.151Z,19.30
2022-09-02T20:37:50.202Z,19.27
2022-09-02T20:40:37.703Z,19.15
2022-09-02T20:43:30.178Z,19.18
2022-09-02T20:46:02.966Z,19.14
2022-09-02T20:48:53.267Z,19.18
2022-09-02T20:51:24.953Z,19.29
2022-09-02T20:54:11.183Z,19.47
2022-09-02T20:56:48.432Z,19.56
2022-09-02T20:59:27.403Z,19.62
2022-09-02T21:01:59.519Z,19.72
2022-09-02T21:04:35.532Z,19.81
2022-09-02T21:07:09.294Z,19.89
2022-09-02T21:09:46.593Z,19.97
2022-09-02T21:12:24.458Z,20.24
2022-09-02T21:15:01.766Z,20.36
2022-09-02T21:17:38.830Z,20.47
2022-09-02T21:20:16.130Z,20.53
2022-09-02T21:22:48.332Z,20.49
2022-09-02T21:25:24.898Z,20.41
2022-09-02T21:27:58.203Z,20.50
2022-09-02T21:30:29.411Z,20.51
2022-09-02T21:33:00.147Z,20.47
2022-09-02T21:35:36.491Z,20.49
2022-09-02T21:38:15.368Z,20.48
2022-09-02T21:41:03.396Z,20.45
2022-09-02T21:43:48.805Z,20.37
2022-09-02T21:46:27.284Z,20.37
2022-09-02T21:49:04.734Z,20.34
2022-09-02T21:51:37.201Z,20.35
2022-09-02T21:54:25.098Z,20.42
2022-09-02T21:57:15.439Z,20.37
2022-09-02T22:00:03.596Z,20.34
2022-09-02T22:02:51.375Z,20.42
2022-09-02T22:05:40.079Z,20.28
2022-09-02T22:08:16.677Z,20.22
2022-09-02T22:10:52.462Z,20.26
2022-09-02T22:13:23.032Z,20.29
2022-09-02T22:15:59.103Z,20.24
2022-09-02T22:18:39.327Z,20.26
2022-09-02T22:21:17.157Z,20.20
2022-09-02T22:23:47.645Z,20.22
2022-09-02T22:26:28.818Z,19.99
2022-09-02T22:29:04.012Z,19.90
2022-09-02T22:31:36.236Z,19.94
2022-09-02T22:34:08.689Z,19.98
2022-09-02T22:36:49.065Z,19.97
2022-09-02T22:39:18.969Z,19.90
2022-09-02T22:41:55.538Z,19.92
2022-09-02T22:44:53.087Z,19.95
2022-09-02T22:47:42.140Z,19.92
2022-09-02T22:50:32.427Z,19.83
2022-09-02T22:53:01.117Z,19.97
2022-09-02T22:55:53.117Z,20.16
2022-09-02T22:58:37.289Z,20.30
2022-09-02T23:01:15.916Z,20.33
2022-09-02T23:03:56.909Z,20.12
2022-09-02T23:06:28.015Z,19.99
2022-09-02T23:08:56.930Z,19.92
2022-09-02T23:11:34.740Z,19.85
2022-09-02T23:14:12.456Z,19.88
2022-09-02T23:17:19.367Z,19.85
2022-09-02T23:20:04.573Z,19.80
2022-09-02T23:22:44.651Z,19.74
2022-09-02T23:25:33.549Z,19.66
2022-09-02T23:28:15.061Z,19.68
2022-09-02T23:31:01.254Z,19.66
2022-09-02T23:33:41.979Z,19.62
2022-09-02T23:36:18.072Z,19.60
2022-09-02T23:39:03.543Z,19.53
2022-09-02T23:41:31.886Z,19.50
2022-09-02T23:44:02.325Z,19.55
2022-09-02T23:46:45.349Z,19.48
2022-09-02T23:49:23.445Z,19.43
2022-09-02T23:51:59.133Z,19.39
2022-09-02T23:54:50.594Z,19.40
2022-09-02T23:57:43.629Z,19.32
